createdAt,value
2018-04-15T00:01:26.345Z,58.43
2018-04-15T00:03:53.800Z,59.33
2018-04-15T00:06:21.260Z,62.07
2018-04-15T00:08:48.668Z,60.10
2018-04-15T00:11:16.104Z,55.17
2018-04-15T00:13:43.540Z,63.63
2018-04-15T00:16:10.976Z,60.03
2018-04-15T00:18:38.420Z,62.50
2018-04-15T00:21:05.868Z,60.27
2018-04-15T00:23:33.319Z,56.17
2018-04-15T00:26:00.746Z,59.80
2018-04-15T00:28:28.959Z,57.80
2018-04-15T00:30:56.408Z,56.30
2018-04-15T00:33:23.858Z,57.93
2018-04-15T00:35:51.288Z,60.97
2018-04-15T00:38:19.499Z,59.67
2018-04-15T00:40:46.935Z,58.10
2018-04-15T00:43:14.364Z,57.03
2018-04-15T00:45:42.557Z,57.37
2018-04-15T00:48:09.999Z,58.43
2018-04-15T00:50:38.197Z,55.97
2018-04-15T00:53:05.629Z,60.80
2018-04-15T00:55:33.832Z,57.77
2018-04-15T00:58:01.287Z,59.77
2018-04-15T01:00:28.727Z,60.53
2018-04-15T01:02:56.924Z,60.40
2018-04-15T01:05:24.356Z,62.17
2018-04-15T01:07:51.789Z,56.87
2018-04-15T01:10:20.007Z,60.93
2018-04-15T01:12:47.445Z,58.97
2018-04-15T01:15:14.873Z,61.33
2018-04-15T01:17:42.313Z,63.43
2018-04-15T01:20:09.740Z,59.70
2018-04-15T01:22:37.184Z,57.17
2018-04-15T01:25:04.624Z,62.23
2018-04-15T01:27:32.052Z,60.67
2018-04-15T01:30:00.257Z,58.50
2018-04-15T01:32:27.688Z,55.57
2018-04-15T01:34:55.893Z,58.37
2018-04-15T01:37:23.338Z,59.57
2018-04-15T01:39:50.772Z,61.83
2018-04-15T01:42:18.973Z,62.07
2018-04-15T01:44:46.405Z,57.37
2018-04-15T01:47:14.597Z,63.83
2018-04-15T01:49:42.032Z,62.33
2018-04-15T01:52:10.248Z,56.90
2018-04-15T01:54:37.689Z,64.83
2018-04-15T01:57:05.120Z,64.17
2018-04-15T01:59:33.319Z,63.60
2018-04-15T02:02:00.765Z,68.20
2018-04-15T02:04:28.193Z,68.03
2018-04-15T02:06:56.404Z,67.07
2018-04-15T02:09:23.842Z,66.50
2018-04-15T02:11:51.268Z,68.43
2018-04-15T02:14:18.719Z,64.33
2018-04-15T02:16:46.944Z,65.90
2018-04-15T02:19:14.390Z,70.87
2018-04-15T02:21:41.813Z,65.13
2018-04-15T02:24:09.252Z,70.30
2018-04-15T02:26:36.698Z,69.47
2018-04-15T02:29:04.140Z,68.53
2018-04-15T02:31:31.576Z,72.93
2018-04-15T02:33:59.041Z,67.60
2018-04-15T02:36:26.457Z,71.97
2018-04-15T02:38:54.673Z,75.57
2018-04-15T02:41:22.116Z,73.57
2018-04-15T02:43:49.557Z,73.07
2018-04-15T02:46:16.982Z,70.80
2018-04-15T02:48:44.417Z,65.37
2018-04-15T02:51:11.852Z,73.30
2018-04-15T02:53:40.214Z,72.13
2018-04-15T02:56:07.649Z,70.47
2018-04-15T02:58:35.084Z,76.27
2018-04-15T03:01:02.526Z,77.40
2018-04-15T03:03:29.957Z,72.47
2018-04-15T03:05:57.397Z,77.90
2018-04-15T03:08:24.842Z,84.93
2018-04-15T03:10:52.285Z,79.33
2018-04-15T03:13:19.717Z,82.37
2018-04-15T03:15:47.157Z,83.70
2018-04-15T03:18:14.589Z,83.40
2018-04-15T03:20:42.037Z,80.83
2018-04-15T03:23:09.471Z,78.67
2018-04-15T03:25:36.912Z,80.07
2018-04-15T03:28:04.340Z,81.53
2018-04-15T03:30:32.337Z,81.47
2018-04-15T03:33:00.531Z,87.53
2018-04-15T03:35:27.973Z,77.17
2018-04-15T03:37:55.400Z,82.57
2018-04-15T03:40:22.846Z,82.57
2018-04-15T03:42:50.283Z,87.77
2018-04-15T03:45:17.728Z,87.07
2018-04-15T03:47:45.178Z,87.23
2018-04-15T03:50:12.616Z,82.40
2018-04-15T03:52:40.044Z,86.27
2018-04-15T03:55:08.248Z,90.83
2018-04-15T03:57:35.691Z,89.90
2018-04-15T04:00:03.141Z,90.73
2018-04-15T04:02:30.612Z,93.33
2018-04-15T04:04:58.052Z,95.40
2018-04-15T04:07:25.491Z,90.77
2018-04-15T04:09:53.713Z,103.30
2018-04-15T04:12:21.157Z,89.60
2018-04-15T04:14:48.599Z,96.60
2018-04-15T04:17:16.049Z,103.13
2018-04-15T04:19:55.357Z,99.27
2018-04-15T04:22:34.537Z,100.33
2018-04-15T04:28:04.348Z,100.03
2018-04-15T04:30:31.776Z,103.10
2018-04-15T04:32:59.989Z,95.37
2018-04-15T04:35:27.445Z,102.87
2018-04-15T04:37:54.870Z,102.23
2018-04-15T04:40:23.076Z,103.20
2018-04-15T04:42:50.514Z,108.80
2018-04-15T04:45:17.956Z,111.63
2018-04-15T04:47:46.157Z,108.67
2018-04-15T04:50:13.601Z,118.57
2018-04-15T04:52:41.800Z,124.60
2018-04-15T04:55:09.241Z,116.47
2018-04-15T04:57:36.672Z,117.50
2018-04-15T05:00:04.876Z,119.27
2018-04-15T05:02:32.307Z,114.80
2018-04-15T05:04:59.778Z,118.40
2018-04-15T05:07:27.224Z,121.70
2018-04-15T05:09:55.416Z,117.00
2018-04-15T05:12:22.873Z,116.13
2018-04-15T05:14:50.323Z,125.57
2018-04-15T05:17:17.778Z,124.97
2018-04-15T05:19:45.217Z,118.23
2018-04-15T05:22:12.661Z,122.67
2018-04-15T05:24:40.879Z,131.30
2018-04-15T05:27:08.335Z,126.37
2018-04-15T05:29:35.781Z,132.03
2018-04-15T05:32:03.231Z,138.87
2018-04-15T05:34:30.661Z,128.53
2018-04-15T05:36:58.873Z,126.67
2018-04-15T05:39:26.318Z,127.27
2018-04-15T05:41:53.873Z,131.93
2018-04-15T05:44:21.301Z,130.27
2018-04-15T05:46:49.520Z,130.40
2018-04-15T05:49:16.947Z,141.03
2018-04-15T05:51:44.389Z,137.27
2018-04-15T05:54:12.595Z,142.00
2018-04-15T05:56:40.046Z,141.37
2018-04-15T05:59:07.479Z,149.40
2018-04-15T06:01:35.697Z,144.60
2018-04-15T06:04:03.148Z,142.77
2018-04-15T06:06:30.593Z,148.20
2018-04-15T06:08:58.031Z,144.30
2018-04-15T06:11:25.468Z,145.03
2018-04-15T06:13:53.675Z,145.87
2018-04-15T06:16:21.130Z,154.00
2018-04-15T06:18:48.544Z,145.43
2018-04-15T06:21:16.761Z,145.20
2018-04-15T06:23:44.723Z,159.63
2018-04-15T06:26:12.162Z,152.57
2018-04-15T06:28:39.604Z,144.73
2018-04-15T06:31:07.825Z,148.00
2018-04-15T06:33:36.069Z,149.03
2018-04-15T06:36:03.510Z,142.83
2018-04-15T06:38:31.715Z,139.20
2018-04-15T06:40:59.163Z,134.80
2018-04-15T06:43:26.593Z,139.57
2018-04-15T06:45:54.796Z,139.83
2018-04-15T06:48:22.268Z,132.77
2018-04-15T06:50:49.781Z,139.30
2018-04-15T06:53:17.996Z,134.73
2018-04-15T06:55:45.506Z,128.97
2018-04-15T06:58:12.928Z,131.97
2018-04-15T07:00:40.372Z,122.50
2018-04-15T07:03:07.936Z,116.63
2018-04-15T07:05:35.379Z,122.67
2018-04-15T07:08:02.842Z,115.50
2018-04-15T07:10:30.288Z,119.60
2018-04-15T07:12:57.740Z,121.20
2018-04-15T07:15:25.177Z,112.33
2018-04-15T07:17:52.628Z,113.60
2018-04-15T07:20:20.101Z,111.23
2018-04-15T07:22:47.554Z,110.07
2018-04-15T07:25:14.993Z,99.37
2018-04-15T07:27:42.429Z,98.23
2018-04-15T07:30:10.637Z,99.37
2018-04-15T07:32:38.072Z,89.97
2018-04-15T07:35:05.512Z,90.00
2018-04-15T07:37:33.719Z,95.97
2018-04-15T07:40:01.148Z,77.60
2018-04-15T07:42:29.356Z,77.47
2018-04-15T07:44:56.798Z,72.80
2018-04-15T07:47:24.229Z,72.03
2018-04-15T07:49:52.420Z,67.70
2018-04-15T07:52:19.863Z,67.80
2018-04-15T07:54:48.062Z,63.90
2018-04-15T07:57:15.504Z,61.10
2018-04-15T07:59:42.938Z,62.10
2018-04-15T08:02:11.151Z,61.20
2018-04-15T08:04:38.585Z,56.97
2018-04-15T08:07:06.025Z,54.37
2018-04-15T08:09:34.236Z,48.20
2018-04-15T08:12:01.652Z,45.13
2018-04-15T08:14:29.848Z,45.97
2018-04-15T08:16:57.285Z,45.93
2018-04-15T08:19:25.517Z,38.13
2018-04-15T08:21:52.933Z,36.80
2018-04-15T08:24:21.141Z,37.73
2018-04-15T08:26:48.580Z,36.63
2018-04-15T08:29:16.033Z,32.67
2018-04-15T08:31:43.487Z,37.53
2018-04-15T08:34:10.961Z,30.17
2018-04-15T08:36:38.402Z,31.60
2018-04-15T08:39:05.852Z,29.80
2018-04-15T08:41:33.286Z,26.90
2018-04-15T08:44:00.715Z,24.33
2018-04-15T08:46:28.152Z,21.07
2018-04-15T08:48:55.595Z,23.07
2018-04-15T08:51:23.026Z,24.47
2018-04-15T08:53:50.497Z,19.60
2018-04-15T08:56:17.933Z,20.63
2018-04-15T08:58:45.386Z,19.60
2018-04-15T09:01:13.572Z,20.20
2018-04-15T09:03:41.010Z,17.00
2018-04-15T09:06:08.440Z,17.13
2018-04-15T09:08:35.876Z,17.53
2018-04-15T09:11:03.308Z,15.60
2018-04-15T09:13:30.765Z,14.00
2018-04-15T09:15:58.221Z,16.63
2018-04-15T09:18:25.676Z,11.93
2018-04-15T09:20:53.437Z,11.77
2018-04-15T09:23:20.909Z,12.73
2018-04-15T09:25:48.300Z,9.07
2018-04-15T09:28:17.341Z,8.87
2018-04-15T09:30:50.480Z,8.77
2018-04-15T09:33:18.689Z,7.50
2018-04-15T09:35:46.100Z,7.67
2018-04-15T09:38:14.296Z,7.90
2018-04-15T09:40:42.120Z,9.17
2018-04-15T09:43:09.539Z,8.57
2018-04-15T09:45:36.961Z,9.13
2018-04-15T09:48:05.167Z,7.73
2018-04-15T09:50:32.592Z,7.60
2018-04-15T09:53:00.795Z,6.30
2018-04-15T09:55:28.216Z,8.63
2018-04-15T09:57:56.404Z,9.17
2018-04-15T10:00:23.839Z,8.57
2018-04-15T10:02:52.053Z,11.43
2018-04-15T10:05:19.476Z,13.23
2018-04-15T10:07:47.677Z,11.37
2018-04-15T10:10:15.140Z,10.17
2018-04-15T10:12:42.554Z,10.20
2018-04-15T10:15:10.763Z,12.97
2018-04-15T10:17:38.185Z,9.40
2018-04-15T10:20:06.384Z,9.50
2018-04-15T10:22:33.808Z,9.87
2018-04-15T10:25:02.012Z,9.57
2018-04-15T10:27:29.436Z,10.17
2018-04-15T10:29:57.629Z,9.17
2018-04-15T10:32:25.059Z,8.63
2018-04-15T10:34:52.483Z,9.37
2018-04-15T10:37:19.906Z,9.63
2018-04-15T10:39:47.340Z,8.73
2018-04-15T10:42:15.528Z,7.90
2018-04-15T10:44:42.976Z,7.43
2018-04-15T10:47:10.409Z,8.60
2018-04-15T10:49:37.844Z,6.60
2018-04-15T10:52:05.269Z,6.13
2018-04-15T10:54:32.708Z,5.30
2018-04-15T10:57:00.134Z,5.63
2018-04-15T10:59:28.328Z,5.90
2018-04-15T11:01:55.752Z,5.90
2018-04-15T11:04:23.182Z,5.83
2018-04-15T11:06:50.607Z,5.13
2018-04-15T11:09:18.062Z,7.67
2018-04-15T11:11:45.481Z,5.77
2018-04-15T11:14:13.737Z,7.00
2018-04-15T11:16:41.097Z,5.93
2018-04-15T11:19:08.533Z,6.07
2018-04-15T11:21:35.957Z,5.00
2018-04-15T11:24:03.922Z,5.50
2018-04-15T11:26:31.331Z,4.27
2018-04-15T11:28:58.771Z,4.30
2018-04-15T11:31:26.189Z,4.57
2018-04-15T11:33:53.608Z,5.00
2018-04-15T11:36:21.797Z,4.23
2018-04-15T11:38:49.232Z,4.57
2018-04-15T11:41:16.660Z,4.50
2018-04-15T11:43:44.083Z,4.60
2018-04-15T11:46:11.515Z,4.30
2018-04-15T11:48:38.950Z,4.50
2018-04-15T11:51:06.381Z,4.20
2018-04-15T11:53:33.843Z,3.90
2018-04-15T11:56:01.273Z,4.03
2018-04-15T11:58:28.907Z,4.33
2018-04-15T12:00:57.072Z,4.27
2018-04-15T12:03:24.513Z,3.83
2018-04-15T12:05:52.709Z,3.97
2018-04-15T12:08:20.138Z,4.23
2018-04-15T12:10:48.337Z,4.60
2018-04-15T12:13:15.769Z,4.65
2018-04-15T12:15:43.957Z,4.07
2018-04-15T12:18:11.385Z,4.67
2018-04-15T12:20:38.820Z,4.43
2018-04-15T12:23:06.260Z,4.17
2018-04-15T12:25:33.701Z,4.63
2018-04-15T12:28:01.120Z,4.17
2018-04-15T12:30:29.321Z,3.80
2018-04-15T12:32:56.748Z,4.77
2018-04-15T12:35:24.958Z,4.50
2018-04-15T12:37:52.378Z,4.40
2018-04-15T12:40:20.572Z,4.80
2018-04-15T12:42:47.994Z,4.83
2018-04-15T12:45:15.448Z,4.60
2018-04-15T12:47:42.884Z,4.70
2018-04-15T12:50:10.421Z,4.03
2018-04-15T12:52:37.827Z,4.90
2018-04-15T12:55:06.040Z,43.47
2018-04-15T12:57:34.329Z,187.73
2018-04-15T13:00:01.772Z,36.47
2018-04-15T13:02:29.188Z,6.57
2018-04-15T13:04:57.447Z,4.70
2018-04-15T13:07:24.873Z,4.67
2018-04-15T13:09:52.307Z,5.50
2018-04-15T13:12:19.736Z,5.43
2018-04-15T13:14:47.935Z,6.10
2018-04-15T13:17:15.363Z,5.63
2018-04-15T13:19:43.578Z,5.23
2018-04-15T13:22:11.007Z,5.47
2018-04-15T13:24:39.201Z,5.70
2018-04-15T13:27:06.634Z,6.80
2018-04-15T13:29:34.062Z,7.20
2018-04-15T13:32:01.489Z,6.43
2018-04-15T13:34:28.914Z,6.40
2018-04-15T13:36:56.348Z,6.50
2018-04-15T13:39:23.777Z,5.73
2018-04-15T13:41:51.202Z,6.30
2018-04-15T13:44:18.631Z,6.50
2018-04-15T13:46:46.061Z,6.63
2018-04-15T13:49:14.239Z,6.97
2018-04-15T13:51:42.435Z,6.83
2018-04-15T13:54:09.860Z,6.93
2018-04-15T13:56:38.052Z,6.87
2018-04-15T13:59:05.492Z,6.30
2018-04-15T14:01:33.692Z,7.00
2018-04-15T14:04:01.116Z,7.30
2018-04-15T14:06:29.341Z,6.33
2018-04-15T14:08:56.765Z,6.63
2018-04-15T14:11:24.202Z,5.93
2018-04-15T14:13:52.391Z,6.60
2018-04-15T14:16:19.833Z,6.60
2018-04-15T14:18:48.025Z,6.07
2018-04-15T14:21:15.457Z,6.43
2018-04-15T14:23:43.648Z,6.33
2018-04-15T14:26:11.077Z,6.23
2018-04-15T14:28:38.499Z,6.30
2018-04-15T14:31:05.940Z,6.33
2018-04-15T14:33:33.381Z,5.80
2018-04-15T14:36:00.809Z,5.73
2018-04-15T14:38:28.999Z,5.60
2018-04-15T14:40:56.428Z,5.07
2018-04-15T14:43:23.852Z,5.43
2018-04-15T14:45:51.285Z,5.43
2018-04-15T14:48:18.721Z,5.73
2018-04-15T14:50:46.149Z,6.17
2018-04-15T14:53:14.339Z,5.90
2018-04-15T14:55:42.559Z,5.50
2018-04-15T14:58:09.972Z,5.27
2018-04-15T15:00:37.404Z,5.37
2018-04-15T15:03:04.836Z,6.10
2018-04-15T15:05:32.265Z,4.77
2018-04-15T15:07:59.698Z,4.80
2018-04-15T15:10:27.124Z,5.73
2018-04-15T15:12:54.562Z,5.43
2018-04-15T15:15:21.990Z,5.00
2018-04-15T15:17:49.419Z,5.40
2018-04-15T15:20:16.841Z,6.93
2018-04-15T15:22:44.297Z,5.73
2018-04-15T15:25:11.711Z,6.07
2018-04-15T15:27:39.147Z,4.53
2018-04-15T15:30:07.476Z,4.90
2018-04-15T15:32:34.908Z,5.13
2018-04-15T15:35:02.357Z,5.20
2018-04-15T15:37:29.787Z,5.80
2018-04-15T15:39:57.205Z,4.67
2018-04-15T15:42:24.641Z,5.93
2018-04-15T15:44:52.629Z,5.63
2018-04-15T15:47:20.072Z,5.43
2018-04-15T15:49:47.486Z,5.60
2018-04-15T15:52:14.923Z,5.37
2018-04-15T15:54:42.348Z,5.73
2018-04-15T15:57:09.792Z,6.90
2018-04-15T15:59:37.216Z,5.50
2018-04-15T16:02:05.485Z,5.30
2018-04-15T16:04:32.926Z,5.40
2018-04-15T16:07:00.367Z,5.03
2018-04-15T16:09:28.563Z,5.27
2018-04-15T16:11:58.557Z,5.20
2018-04-15T16:14:27.738Z,5.27
2018-04-15T16:16:55.938Z,5.27
2018-04-15T16:19:23.356Z,4.50
2018-04-15T16:21:50.789Z,4.37
2018-04-15T16:24:18.224Z,4.60
2018-04-15T16:26:45.674Z,3.90
2018-04-15T16:29:13.088Z,5.30
2018-04-15T16:31:41.289Z,3.70
2018-04-15T16:34:09.150Z,3.97
2018-04-15T16:36:36.603Z,3.50
2018-04-15T16:39:04.038Z,3.50
2018-04-15T16:41:31.457Z,3.60
2018-04-15T16:43:58.883Z,3.80
2018-04-15T16:46:26.311Z,3.73
2018-04-15T16:48:54.512Z,4.90
2018-04-15T16:51:21.935Z,3.30
2018-04-15T16:53:50.138Z,3.50
2018-04-15T16:56:17.557Z,3.50
2018-04-15T16:58:45.757Z,4.83
2018-04-15T17:01:13.180Z,5.93
2018-04-15T17:03:40.608Z,4.33
2018-04-15T17:06:08.034Z,3.83
2018-04-15T17:08:35.474Z,3.40
2018-04-15T17:11:03.666Z,4.00
2018-04-15T17:13:31.075Z,5.53
2018-04-15T17:15:59.263Z,3.80
2018-04-15T17:18:27.469Z,3.07
2018-04-15T17:20:54.888Z,4.00
2018-04-15T17:23:23.099Z,3.80
2018-04-15T17:25:50.517Z,3.50
2018-04-15T17:28:18.708Z,3.67
2018-04-15T17:30:46.144Z,4.67
2018-04-15T17:33:14.328Z,6.63
2018-04-15T17:35:41.764Z,6.60
2018-04-15T17:38:09.972Z,8.03
2018-04-15T17:40:37.389Z,9.07
2018-04-15T17:43:05.596Z,5.10
2018-04-15T17:45:33.027Z,7.33
2018-04-15T17:48:01.225Z,5.10
2018-04-15T17:50:28.653Z,5.20
2018-04-15T17:52:56.883Z,5.90
2018-04-15T17:55:24.277Z,5.90
2018-04-15T17:57:52.496Z,7.27
2018-04-15T18:00:19.925Z,6.77
2018-04-15T18:02:48.118Z,5.40
2018-04-15T18:05:15.553Z,5.13
2018-04-15T18:07:43.749Z,5.57
2018-04-15T18:10:11.205Z,5.57
2018-04-15T18:12:38.628Z,5.70
2018-04-15T18:15:06.853Z,6.20
2018-04-15T18:17:34.286Z,7.93
2018-04-15T18:20:02.671Z,7.10
2018-04-15T18:22:30.815Z,6.90
2018-04-15T18:24:59.021Z,8.20
2018-04-15T18:27:26.456Z,7.30
2018-04-15T18:29:53.878Z,6.90
2018-04-15T18:32:21.312Z,6.87
2018-04-15T18:34:48.793Z,7.50
2018-04-15T18:37:16.997Z,7.33
2018-04-15T18:39:44.434Z,7.37
2018-04-15T18:42:12.637Z,7.27
2018-04-15T18:44:40.065Z,7.13
2018-04-15T18:47:08.350Z,7.60
2018-04-15T18:49:35.791Z,7.57
2018-04-15T18:52:04.017Z,7.33
2018-04-15T18:54:31.472Z,7.73
2018-04-15T18:56:58.892Z,7.43
2018-04-15T18:59:26.319Z,8.77
2018-04-15T19:01:53.737Z,8.30
2018-04-15T19:04:21.181Z,8.40
2018-04-15T19:06:48.602Z,8.53
2018-04-15T19:09:16.793Z,8.57
2018-04-15T19:11:44.217Z,8.33
2018-04-15T19:14:12.416Z,8.13
2018-04-15T19:16:39.841Z,8.20
2018-04-15T19:19:07.273Z,8.17
2018-04-15T19:21:34.702Z,7.90
2018-04-15T19:24:02.133Z,8.83
2018-04-15T19:26:29.560Z,8.50
2018-04-15T19:28:57.007Z,8.47
2018-04-15T19:31:24.463Z,9.40
2018-04-15T19:33:51.857Z,8.00
2018-04-15T19:36:19.275Z,9.30
2018-04-15T19:38:46.696Z,9.40
2018-04-15T19:41:14.139Z,9.63
2018-04-15T19:43:41.556Z,10.43
2018-04-15T19:46:09.749Z,11.23
2018-04-15T19:48:37.207Z,9.50
2018-04-15T19:51:04.640Z,10.33
2018-04-15T19:53:32.848Z,9.73
2018-04-15T19:56:00.272Z,10.20
2018-04-15T19:58:28.464Z,9.63
2018-04-15T20:00:55.907Z,10.03
2018-04-15T20:03:24.104Z,10.93
2018-04-15T20:05:51.536Z,10.80
2018-04-15T20:08:19.773Z,11.23
2018-04-15T20:10:47.164Z,9.43
2018-04-15T20:13:15.370Z,10.60
2018-04-15T20:15:42.804Z,10.97
2018-04-15T20:18:10.219Z,10.97
2018-04-15T20:20:37.664Z,11.37
2018-04-15T20:23:05.095Z,10.97
2018-04-15T20:25:32.541Z,11.43
2018-04-15T20:27:59.973Z,12.07
2018-04-15T20:30:28.187Z,11.53
2018-04-15T20:32:55.622Z,11.07
2018-04-15T20:35:23.066Z,12.00
2018-04-15T20:37:50.491Z,11.30
2018-04-15T20:40:17.926Z,12.13
2018-04-15T20:42:45.371Z,12.07
2018-04-15T20:45:12.802Z,11.93
2018-04-15T20:47:40.248Z,12.20
2018-04-15T20:50:07.671Z,13.27
2018-04-15T20:52:36.267Z,14.40
2018-04-15T20:55:05.542Z,14.63
2018-04-15T20:57:32.916Z,13.20
2018-04-15T21:00:01.121Z,14.83
2018-04-15T21:02:28.557Z,14.03
2018-04-15T21:04:56.008Z,15.13
2018-04-15T21:07:23.439Z,15.27
2018-04-15T21:09:50.903Z,15.10
2018-04-15T21:12:19.113Z,15.93
2018-04-15T21:14:46.556Z,15.80
2018-04-15T21:17:13.989Z,16.50
2018-04-15T21:19:42.193Z,16.50
2018-04-15T21:22:09.624Z,16.10
2018-04-15T21:24:37.829Z,17.60
2018-04-15T21:27:05.408Z,17.13
2018-04-15T21:29:33.625Z,17.60
2018-04-15T21:32:01.052Z,17.73
2018-04-15T21:34:28.513Z,16.70
2018-04-15T21:36:55.944Z,16.90
2018-04-15T21:39:23.387Z,16.93
2018-04-15T21:41:50.816Z,17.00
2018-04-15T21:44:18.252Z,17.70
2018-04-15T21:46:46.453Z,18.40
2018-04-15T21:49:13.893Z,16.97
2018-04-15T21:51:42.096Z,17.13
2018-04-15T21:54:09.544Z,16.70
2018-04-15T21:56:36.973Z,18.30
2018-04-15T21:59:05.164Z,17.90
2018-04-15T22:01:32.616Z,17.40
2018-04-15T22:04:00.803Z,18.30
2018-04-15T22:06:28.235Z,19.07
2018-04-15T22:08:56.437Z,19.27
2018-04-15T22:11:35.571Z,18.50
2018-04-15T22:14:02.984Z,17.97
2018-04-15T22:16:31.193Z,18.17
2018-04-15T22:18:58.624Z,19.30
2018-04-15T22:21:26.064Z,19.20
2018-04-15T22:23:54.269Z,18.87
2018-04-15T22:26:21.710Z,19.77
2018-04-15T22:28:49.922Z,20.23
2018-04-15T22:31:17.342Z,19.73
2018-04-15T22:33:44.780Z,20.10
2018-04-15T22:36:13.000Z,19.20
2018-04-15T22:38:40.445Z,20.67
2018-04-15T22:41:07.881Z,21.10
2018-04-15T22:43:36.080Z,18.93
2018-04-15T22:46:03.529Z,19.87
2018-04-15T22:48:36.675Z,19.77
2018-04-15T22:51:04.132Z,21.50
2018-04-15T22:53:31.565Z,22.83
2018-04-15T22:55:59.009Z,22.83
2018-04-15T23:01:20.009Z,23.47
2018-04-15T23:03:47.451Z,22.00
2018-04-15T23:06:14.891Z,23.07
2018-04-15T23:08:43.085Z,24.10
2018-04-15T23:11:10.519Z,24.43
2018-04-15T23:13:38.727Z,26.20
2018-04-15T23:16:06.161Z,25.60
2018-04-15T23:18:33.620Z,26.10
2018-04-15T23:21:01.072Z,24.80
2018-04-15T23:23:29.264Z,25.27
2018-04-15T23:25:56.713Z,26.97
2018-04-15T23:28:24.140Z,28.27
2018-04-15T23:30:52.350Z,26.63
2018-04-15T23:33:19.788Z,27.47
2018-04-15T23:35:47.225Z,26.07
2018-04-15T23:38:15.427Z,26.07
2018-04-15T23:40:42.865Z,26.47
2018-04-15T23:43:10.322Z,27.27
2018-04-15T23:45:38.518Z,27.90
2018-04-15T23:48:06.529Z,26.33
2018-04-15T23:50:33.957Z,28.83
2018-04-15T23:53:01.397Z,30.00
2018-04-15T23:55:28.817Z,28.93
2018-04-15T23:57:57.024Z,29.03
